sensor_id;sensor_type;location;lat;lon;timestamp;P1;durP1;ratioP1;P2;durP2;ratioP2
62844;SDS011;48929;47.910;20.390;2022-11-06T00:00:29;7.15;;;3.78;;
62844;SDS011;48929;47.910;20.390;2022-11-06T00:02:57;4.78;;;3.30;;
62844;SDS011;48929;47.910;20.390;2022-11-06T00:05:27;7.78;;;3.45;;
62844;SDS011;48929;47.910;20.390;2022-11-06T00:08:13;5.40;;;3.25;;
62844;SDS011;48929;47.910;20.390;2022-11-06T00:10:42;5.78;;;3.20;;
62844;SDS011;48929;47.910;20.390;2022-11-06T00:13:10;5.57;;;3.30;;
62844;SDS011;48929;47.910;20.390;2022-11-06T00:15:38;4.97;;;3.10;;
62844;SDS011;48929;47.910;20.390;2022-11-06T00:18:07;6.13;;;2.97;;
62844;SDS011;48929;47.910;20.390;2022-11-06T00:20:37;4.70;;;2.70;;
62844;SDS011;48929;47.910;20.390;2022-11-06T00:23:06;4.97;;;2.88;;
62844;SDS011;48929;47.910;20.390;2022-11-06T00:25:34;5.90;;;2.78;;
62844;SDS011;48929;47.910;20.390;2022-11-06T00:28:06;4.40;;;2.90;;
62844;SDS011;48929;47.910;20.390;2022-11-06T00:30:34;6.93;;;2.95;;
62844;SDS011;48929;47.910;20.390;2022-11-06T00:33:03;6.60;;;3.13;;
62844;SDS011;48929;47.910;20.390;2022-11-06T00:35:31;7.80;;;3.30;;
62844;SDS011;48929;47.910;20.390;2022-11-06T00:38:01;5.85;;;3.30;;
62844;SDS011;48929;47.910;20.390;2022-11-06T00:40:29;6.72;;;3.50;;
62844;SDS011;48929;47.910;20.390;2022-11-06T00:42:58;11.10;;;5.07;;
62844;SDS011;48929;47.910;20.390;2022-11-06T00:45:26;7.70;;;4.40;;
62844;SDS011;48929;47.910;20.390;2022-11-06T00:47:54;8.48;;;4.40;;
62844;SDS011;48929;47.910;20.390;2022-11-06T00:50:23;7.97;;;3.72;;
62844;SDS011;48929;47.910;20.390;2022-11-06T00:52:53;7.40;;;3.78;;
62844;SDS011;48929;47.910;20.390;2022-11-06T00:55:23;5.90;;;2.90;;
62844;SDS011;48929;47.910;20.390;2022-11-06T00:57:51;7.75;;;3.10;;
62844;SDS011;48929;47.910;20.390;2022-11-06T01:00:20;4.97;;;3.03;;
62844;SDS011;48929;47.910;20.390;2022-11-06T01:02:50;4.45;;;3.00;;
62844;SDS011;48929;47.910;20.390;2022-11-06T01:05:18;4.70;;;2.80;;
62844;SDS011;48929;47.910;20.390;2022-11-06T01:07:47;4.80;;;2.80;;
62844;SDS011;48929;47.910;20.390;2022-11-06T01:10:15;6.40;;;2.80;;
62844;SDS011;48929;47.910;20.390;2022-11-06T01:13:00;5.43;;;2.80;;
62844;SDS011;48929;47.910;20.390;2022-11-06T01:15:29;5.13;;;3.00;;
62844;SDS011;48929;47.910;20.390;2022-11-06T01:17:58;7.68;;;3.00;;
62844;SDS011;48929;47.910;20.390;2022-11-06T01:20:27;4.75;;;2.78;;
62844;SDS011;48929;47.910;20.390;2022-11-06T01:22:55;4.63;;;2.80;;
62844;SDS011;48929;47.910;20.390;2022-11-06T01:25:24;5.15;;;2.97;;
62844;SDS011;48929;47.910;20.390;2022-11-06T01:27:52;4.53;;;2.90;;
62844;SDS011;48929;47.910;20.390;2022-11-06T01:30:22;4.82;;;3.08;;
62844;SDS011;48929;47.910;20.390;2022-11-06T01:32:50;6.53;;;2.90;;
62844;SDS011;48929;47.910;20.390;2022-11-06T01:35:18;9.30;;;2.85;;
62844;SDS011;48929;47.910;20.390;2022-11-06T01:37:47;4.80;;;3.08;;
62844;SDS011;48929;47.910;20.390;2022-11-06T01:40:15;7.25;;;3.40;;
62844;SDS011;48929;47.910;20.390;2022-11-06T01:42:43;4.68;;;3.20;;
62844;SDS011;48929;47.910;20.390;2022-11-06T01:45:20;5.03;;;3.35;;
62844;SDS011;48929;47.910;20.390;2022-11-06T01:47:51;5.32;;;3.28;;
62844;SDS011;48929;47.910;20.390;2022-11-06T01:50:20;5.28;;;2.88;;
62844;SDS011;48929;47.910;20.390;2022-11-06T01:52:49;6.57;;;3.50;;
62844;SDS011;48929;47.910;20.390;2022-11-06T01:55:20;5.15;;;3.10;;
62844;SDS011;48929;47.910;20.390;2022-11-06T01:57:50;5.72;;;2.72;;
62844;SDS011;48929;47.910;20.390;2022-11-06T02:00:18;8.65;;;3.00;;
62844;SDS011;48929;47.910;20.390;2022-11-06T02:02:47;6.32;;;3.05;;
62844;SDS011;48929;47.910;20.390;2022-11-06T02:05:16;5.75;;;2.95;;
62844;SDS011;48929;47.910;20.390;2022-11-06T02:07:45;6.22;;;3.40;;
62844;SDS011;48929;47.910;20.390;2022-11-06T02:10:13;7.35;;;3.03;;
62844;SDS011;48929;47.910;20.390;2022-11-06T02:12:53;4.47;;;3.03;;
62844;SDS011;48929;47.910;20.390;2022-11-06T02:15:26;5.68;;;3.33;;
62844;SDS011;48929;47.910;20.390;2022-11-06T02:17:58;4.78;;;2.83;;
62844;SDS011;48929;47.910;20.390;2022-11-06T02:20:31;5.38;;;3.00;;
62844;SDS011;48929;47.910;20.390;2022-11-06T02:25:48;4.60;;;3.08;;
62844;SDS011;48929;47.910;20.390;2022-11-06T02:28:21;4.82;;;2.90;;
62844;SDS011;48929;47.910;20.390;2022-11-06T02:30:51;4.60;;;2.70;;
62844;SDS011;48929;47.910;20.390;2022-11-06T02:33:22;5.13;;;2.67;;
62844;SDS011;48929;47.910;20.390;2022-11-06T02:35:55;4.18;;;2.60;;
62844;SDS011;48929;47.910;20.390;2022-11-06T02:38:28;5.15;;;2.63;;
62844;SDS011;48929;47.910;20.390;2022-11-06T02:40:59;6.05;;;2.63;;
62844;SDS011;48929;47.910;20.390;2022-11-06T02:43:31;4.82;;;2.85;;
62844;SDS011;48929;47.910;20.390;2022-11-06T02:46:01;4.88;;;2.65;;
62844;SDS011;48929;47.910;20.390;2022-11-06T02:48:32;5.78;;;2.78;;
62844;SDS011;48929;47.910;20.390;2022-11-06T02:51:01;4.93;;;2.90;;
62844;SDS011;48929;47.910;20.390;2022-11-06T02:53:32;6.15;;;2.70;;
62844;SDS011;48929;47.910;20.390;2022-11-06T02:56:04;8.65;;;2.75;;
62844;SDS011;48929;47.910;20.390;2022-11-06T02:58:36;4.50;;;2.60;;
62844;SDS011;48929;47.910;20.390;2022-11-06T03:01:14;3.58;;;2.28;;
62844;SDS011;48929;47.910;20.390;2022-11-06T03:03:47;4.82;;;2.40;;
62844;SDS011;48929;47.910;20.390;2022-11-06T03:06:18;4.38;;;2.50;;
62844;SDS011;48929;47.910;20.390;2022-11-06T03:08:48;4.05;;;2.50;;
62844;SDS011;48929;47.910;20.390;2022-11-06T03:11:19;4.18;;;2.60;;
62844;SDS011;48929;47.910;20.390;2022-11-06T03:13:52;3.72;;;2.45;;
62844;SDS011;48929;47.910;20.390;2022-11-06T03:16:22;4.93;;;2.70;;
62844;SDS011;48929;47.910;20.390;2022-11-06T03:18:56;5.45;;;2.20;;
62844;SDS011;48929;47.910;20.390;2022-11-06T03:21:29;3.92;;;2.40;;
62844;SDS011;48929;47.910;20.390;2022-11-06T03:24:00;4.25;;;2.20;;
62844;SDS011;48929;47.910;20.390;2022-11-06T03:26:31;4.60;;;2.70;;
62844;SDS011;48929;47.910;20.390;2022-11-06T03:29:04;3.85;;;2.28;;
62844;SDS011;48929;47.910;20.390;2022-11-06T03:31:37;4.30;;;2.53;;
62844;SDS011;48929;47.910;20.390;2022-11-06T03:34:08;6.32;;;2.50;;
62844;SDS011;48929;47.910;20.390;2022-11-06T03:36:41;4.57;;;3.05;;
62844;SDS011;48929;47.910;20.390;2022-11-06T03:39:13;4.35;;;2.60;;
62844;SDS011;48929;47.910;20.390;2022-11-06T03:41:43;5.95;;;2.50;;
62844;SDS011;48929;47.910;20.390;2022-11-06T03:44:16;4.47;;;2.70;;
62844;SDS011;48929;47.910;20.390;2022-11-06T03:46:45;3.97;;;2.58;;
62844;SDS011;48929;47.910;20.390;2022-11-06T03:49:16;5.13;;;2.45;;
62844;SDS011;48929;47.910;20.390;2022-11-06T03:51:48;3.50;;;2.40;;
62844;SDS011;48929;47.910;20.390;2022-11-06T03:54:18;5.22;;;2.47;;
62844;SDS011;48929;47.910;20.390;2022-11-06T03:56:50;4.10;;;2.60;;
62844;SDS011;48929;47.910;20.390;2022-11-06T03:59:21;3.67;;;2.40;;
62844;SDS011;48929;47.910;20.390;2022-11-06T04:01:53;3.78;;;2.20;;
62844;SDS011;48929;47.910;20.390;2022-11-06T04:04:23;4.20;;;2.40;;
62844;SDS011;48929;47.910;20.390;2022-11-06T04:06:54;4.78;;;2.40;;
62844;SDS011;48929;47.910;20.390;2022-11-06T04:09:25;5.97;;;2.67;;
62844;SDS011;48929;47.910;20.390;2022-11-06T04:12:12;4.20;;;2.85;;
62844;SDS011;48929;47.910;20.390;2022-11-06T04:15:01;5.68;;;2.45;;
62844;SDS011;48929;47.910;20.390;2022-11-06T04:17:29;3.65;;;2.47;;
62844;SDS011;48929;47.910;20.390;2022-11-06T04:19:59;3.63;;;2.22;;
62844;SDS011;48929;47.910;20.390;2022-11-06T04:22:33;3.67;;;2.35;;
62844;SDS011;48929;47.910;20.390;2022-11-06T04:25:07;4.68;;;2.40;;
62844;SDS011;48929;47.910;20.390;2022-11-06T04:27:59;3.45;;;2.40;;
62844;SDS011;48929;47.910;20.390;2022-11-06T04:30:31;5.00;;;2.63;;
62844;SDS011;48929;47.910;20.390;2022-11-06T04:33:02;6.05;;;2.70;;
62844;SDS011;48929;47.910;20.390;2022-11-06T04:35:38;5.55;;;2.60;;
62844;SDS011;48929;47.910;20.390;2022-11-06T04:38:09;3.78;;;2.60;;
62844;SDS011;48929;47.910;20.390;2022-11-06T04:40:42;4.60;;;2.72;;
62844;SDS011;48929;47.910;20.390;2022-11-06T04:43:13;7.07;;;2.83;;
62844;SDS011;48929;47.910;20.390;2022-11-06T04:45:44;4.72;;;2.78;;
62844;SDS011;48929;47.910;20.390;2022-11-06T04:48:14;5.93;;;2.60;;
62844;SDS011;48929;47.910;20.390;2022-11-06T04:50:44;5.07;;;2.90;;
62844;SDS011;48929;47.910;20.390;2022-11-06T04:53:14;5.50;;;2.80;;
62844;SDS011;48929;47.910;20.390;2022-11-06T04:55:43;5.72;;;2.78;;
62844;SDS011;48929;47.910;20.390;2022-11-06T04:58:13;4.45;;;2.70;;
62844;SDS011;48929;47.910;20.390;2022-11-06T05:00:43;4.35;;;2.55;;
62844;SDS011;48929;47.910;20.390;2022-11-06T05:03:12;3.97;;;2.58;;
62844;SDS011;48929;47.910;20.390;2022-11-06T05:05:41;5.35;;;2.70;;
62844;SDS011;48929;47.910;20.390;2022-11-06T05:08:11;5.65;;;2.90;;
62844;SDS011;48929;47.910;20.390;2022-11-06T05:10:41;5.82;;;2.70;;
62844;SDS011;48929;47.910;20.390;2022-11-06T05:13:09;4.65;;;2.70;;
62844;SDS011;48929;47.910;20.390;2022-11-06T05:15:37;6.05;;;2.67;;
62844;SDS011;48929;47.910;20.390;2022-11-06T05:18:07;6.05;;;3.00;;
62844;SDS011;48929;47.910;20.390;2022-11-06T05:20:36;5.10;;;2.67;;
62844;SDS011;48929;47.910;20.390;2022-11-06T05:23:04;5.97;;;2.40;;
62844;SDS011;48929;47.910;20.390;2022-11-06T05:25:31;4.70;;;2.30;;
62844;SDS011;48929;47.910;20.390;2022-11-06T05:28:01;6.10;;;2.60;;
62844;SDS011;48929;47.910;20.390;2022-11-06T05:30:31;4.57;;;2.58;;
62844;SDS011;48929;47.910;20.390;2022-11-06T05:32:59;5.45;;;3.00;;
62844;SDS011;48929;47.910;20.390;2022-11-06T05:35:29;5.10;;;2.80;;
62844;SDS011;48929;47.910;20.390;2022-11-06T05:37:59;6.70;;;2.67;;
62844;SDS011;48929;47.910;20.390;2022-11-06T05:40:28;4.55;;;2.55;;
62844;SDS011;48929;47.910;20.390;2022-11-06T05:42:57;5.70;;;3.08;;
62844;SDS011;48929;47.910;20.390;2022-11-06T05:45:25;5.95;;;2.97;;
62844;SDS011;48929;47.910;20.390;2022-11-06T05:47:54;5.57;;;2.80;;
62844;SDS011;48929;47.910;20.390;2022-11-06T05:50:22;4.75;;;2.58;;
62844;SDS011;48929;47.910;20.390;2022-11-06T05:52:52;5.65;;;2.88;;
62844;SDS011;48929;47.910;20.390;2022-11-06T05:55:20;5.20;;;2.65;;
62844;SDS011;48929;47.910;20.390;2022-11-06T05:57:49;5.25;;;2.97;;
62844;SDS011;48929;47.910;20.390;2022-11-06T06:00:17;4.90;;;2.90;;
62844;SDS011;48929;47.910;20.390;2022-11-06T06:02:46;5.28;;;2.90;;
62844;SDS011;48929;47.910;20.390;2022-11-06T06:05:15;5.15;;;3.22;;
62844;SDS011;48929;47.910;20.390;2022-11-06T06:07:43;5.53;;;2.90;;
62844;SDS011;48929;47.910;20.390;2022-11-06T06:10:13;7.22;;;3.10;;
62844;SDS011;48929;47.910;20.390;2022-11-06T06:12:41;5.00;;;2.88;;
62844;SDS011;48929;47.910;20.390;2022-11-06T06:15:09;5.00;;;2.83;;
62844;SDS011;48929;47.910;20.390;2022-11-06T06:17:44;6.65;;;3.08;;
62844;SDS011;48929;47.910;20.390;2022-11-06T06:20:12;6.20;;;3.00;;
62844;SDS011;48929;47.910;20.390;2022-11-06T06:22:41;5.30;;;3.20;;
62844;SDS011;48929;47.910;20.390;2022-11-06T06:25:10;6.47;;;3.08;;
62844;SDS011;48929;47.910;20.390;2022-11-06T06:27:50;9.65;;;4.38;;
62844;SDS011;48929;47.910;20.390;2022-11-06T06:30:19;6.75;;;3.60;;
62844;SDS011;48929;47.910;20.390;2022-11-06T06:32:48;12.15;;;4.25;;
62844;SDS011;48929;47.910;20.390;2022-11-06T06:35:17;7.53;;;4.00;;
62844;SDS011;48929;47.910;20.390;2022-11-06T06:37:49;10.63;;;4.30;;
62844;SDS011;48929;47.910;20.390;2022-11-06T06:40:17;6.72;;;3.50;;
62844;SDS011;48929;47.910;20.390;2022-11-06T06:42:52;7.38;;;3.20;;
62844;SDS011;48929;47.910;20.390;2022-11-06T06:45:21;8.60;;;3.03;;
62844;SDS011;48929;47.910;20.390;2022-11-06T06:47:50;5.78;;;3.08;;
62844;SDS011;48929;47.910;20.390;2022-11-06T06:50:18;6.68;;;3.40;;
62844;SDS011;48929;47.910;20.390;2022-11-06T06:52:46;5.88;;;3.25;;
62844;SDS011;48929;47.910;20.390;2022-11-06T06:55:15;9.68;;;4.00;;
62844;SDS011;48929;47.910;20.390;2022-11-06T06:57:43;10.45;;;5.07;;
62844;SDS011;48929;47.910;20.390;2022-11-06T07:00:14;6.88;;;4.30;;
62844;SDS011;48929;47.910;20.390;2022-11-06T07:02:42;6.75;;;4.20;;
62844;SDS011;48929;47.910;20.390;2022-11-06T07:05:10;7.70;;;3.72;;
62844;SDS011;48929;47.910;20.390;2022-11-06T07:07:39;7.68;;;4.03;;
62844;SDS011;48929;47.910;20.390;2022-11-06T07:10:11;7.43;;;4.22;;
62844;SDS011;48929;47.910;20.390;2022-11-06T07:12:40;8.48;;;4.45;;
62844;SDS011;48929;47.910;20.390;2022-11-06T07:15:08;8.15;;;4.50;;
62844;SDS011;48929;47.910;20.390;2022-11-06T07:17:38;7.93;;;4.15;;
62844;SDS011;48929;47.910;20.390;2022-11-06T07:20:07;8.65;;;4.57;;
62844;SDS011;48929;47.910;20.390;2022-11-06T07:22:37;7.70;;;4.53;;
62844;SDS011;48929;47.910;20.390;2022-11-06T07:25:05;7.30;;;4.53;;
62844;SDS011;48929;47.910;20.390;2022-11-06T07:27:34;9.55;;;5.30;;
62844;SDS011;48929;47.910;20.390;2022-11-06T07:30:02;11.43;;;6.97;;
62844;SDS011;48929;47.910;20.390;2022-11-06T07:32:31;13.77;;;7.95;;
62844;SDS011;48929;47.910;20.390;2022-11-06T07:35:01;16.35;;;9.02;;
62844;SDS011;48929;47.910;20.390;2022-11-06T07:37:29;18.40;;;10.75;;
62844;SDS011;48929;47.910;20.390;2022-11-06T07:40:00;24.73;;;15.43;;
62844;SDS011;48929;47.910;20.390;2022-11-06T07:42:29;15.18;;;9.15;;
62844;SDS011;48929;47.910;20.390;2022-11-06T07:44:58;12.90;;;7.80;;
62844;SDS011;48929;47.910;20.390;2022-11-06T07:47:28;15.55;;;8.85;;
62844;SDS011;48929;47.910;20.390;2022-11-06T07:49:57;18.23;;;8.88;;
62844;SDS011;48929;47.910;20.390;2022-11-06T07:52:27;13.88;;;8.25;;
62844;SDS011;48929;47.910;20.390;2022-11-06T07:54:55;16.30;;;8.48;;
62844;SDS011;48929;47.910;20.390;2022-11-06T07:57:24;16.10;;;7.28;;
62844;SDS011;48929;47.910;20.390;2022-11-06T07:59:54;12.48;;;6.75;;
62844;SDS011;48929;47.910;20.390;2022-11-06T08:02:22;9.38;;;4.90;;
62844;SDS011;48929;47.910;20.390;2022-11-06T08:04:50;12.73;;;5.13;;
62844;SDS011;48929;47.910;20.390;2022-11-06T08:07:19;14.00;;;7.00;;
62844;SDS011;48929;47.910;20.390;2022-11-06T08:09:50;12.70;;;6.32;;
62844;SDS011;48929;47.910;20.390;2022-11-06T08:12:18;8.95;;;4.70;;
62844;SDS011;48929;47.910;20.390;2022-11-06T08:14:48;5.13;;;2.95;;
62844;SDS011;48929;47.910;20.390;2022-11-06T08:17:19;5.47;;;3.50;;
62844;SDS011;48929;47.910;20.390;2022-11-06T08:19:51;8.60;;;3.72;;
62844;SDS011;48929;47.910;20.390;2022-11-06T08:22:20;7.82;;;4.93;;
62844;SDS011;48929;47.910;20.390;2022-11-06T08:24:50;4.97;;;3.17;;
62844;SDS011;48929;47.910;20.390;2022-11-06T08:27:18;8.93;;;4.13;;
62844;SDS011;48929;47.910;20.390;2022-11-06T08:29:46;6.75;;;3.90;;
62844;SDS011;48929;47.910;20.390;2022-11-06T08:32:15;7.70;;;3.63;;
62844;SDS011;48929;47.910;20.390;2022-11-06T08:34:43;4.85;;;2.90;;
62844;SDS011;48929;47.910;20.390;2022-11-06T08:37:14;6.40;;;3.58;;
62844;SDS011;48929;47.910;20.390;2022-11-06T08:39:42;11.85;;;5.60;;
62844;SDS011;48929;47.910;20.390;2022-11-06T08:42:14;8.57;;;4.50;;
62844;SDS011;48929;47.910;20.390;2022-11-06T08:44:44;7.13;;;3.72;;
62844;SDS011;48929;47.910;20.390;2022-11-06T08:47:44;6.47;;;3.85;;
62844;SDS011;48929;47.910;20.390;2022-11-06T08:50:12;6.43;;;3.17;;
62844;SDS011;48929;47.910;20.390;2022-11-06T08:52:42;6.78;;;3.80;;
62844;SDS011;48929;47.910;20.390;2022-11-06T08:55:12;5.25;;;3.50;;
62844;SDS011;48929;47.910;20.390;2022-11-06T08:57:42;9.50;;;4.70;;
62844;SDS011;48929;47.910;20.390;2022-11-06T09:00:12;7.00;;;4.00;;
62844;SDS011;48929;47.910;20.390;2022-11-06T09:02:41;5.80;;;3.55;;
62844;SDS011;48929;47.910;20.390;2022-11-06T09:05:09;6.03;;;3.42;;
62844;SDS011;48929;47.910;20.390;2022-11-06T09:07:37;4.55;;;3.00;;
62844;SDS011;48929;47.910;20.390;2022-11-06T09:10:06;5.57;;;3.15;;
62844;SDS011;48929;47.910;20.390;2022-11-06T09:12:35;8.10;;;4.00;;
62844;SDS011;48929;47.910;20.390;2022-11-06T09:15:08;7.68;;;3.40;;
62844;SDS011;48929;47.910;20.390;2022-11-06T09:17:40;6.53;;;3.22;;
62844;SDS011;48929;47.910;20.390;2022-11-06T09:20:10;5.97;;;2.80;;
62844;SDS011;48929;47.910;20.390;2022-11-06T09:22:41;10.02;;;4.85;;
62844;SDS011;48929;47.910;20.390;2022-11-06T09:25:10;5.00;;;3.30;;
62844;SDS011;48929;47.910;20.390;2022-11-06T09:27:41;5.45;;;3.00;;
62844;SDS011;48929;47.910;20.390;2022-11-06T09:30:13;4.82;;;2.80;;
62844;SDS011;48929;47.910;20.390;2022-11-06T09:32:44;4.63;;;2.80;;
62844;SDS011;48929;47.910;20.390;2022-11-06T09:35:15;5.05;;;2.97;;
62844;SDS011;48929;47.910;20.390;2022-11-06T09:37:44;4.85;;;3.17;;
62844;SDS011;48929;47.910;20.390;2022-11-06T09:40:16;5.25;;;2.90;;
62844;SDS011;48929;47.910;20.390;2022-11-06T09:42:49;4.95;;;2.95;;
62844;SDS011;48929;47.910;20.390;2022-11-06T09:45:22;3.85;;;2.65;;
62844;SDS011;48929;47.910;20.390;2022-11-06T09:47:53;4.10;;;2.83;;
62844;SDS011;48929;47.910;20.390;2022-11-06T09:50:27;4.80;;;2.72;;
62844;SDS011;48929;47.910;20.390;2022-11-06T09:52:58;5.03;;;2.90;;
62844;SDS011;48929;47.910;20.390;2022-11-06T09:55:33;8.40;;;4.15;;
62844;SDS011;48929;47.910;20.390;2022-11-06T09:58:04;5.32;;;3.00;;
62844;SDS011;48929;47.910;20.390;2022-11-06T10:00:35;5.75;;;3.15;;
62844;SDS011;48929;47.910;20.390;2022-11-06T10:03:04;5.32;;;2.88;;
62844;SDS011;48929;47.910;20.390;2022-11-06T10:05:33;4.40;;;2.72;;
62844;SDS011;48929;47.910;20.390;2022-11-06T10:08:04;4.60;;;2.60;;
62844;SDS011;48929;47.910;20.390;2022-11-06T10:10:35;4.85;;;2.60;;
62844;SDS011;48929;47.910;20.390;2022-11-06T10:13:11;4.32;;;2.88;;
62844;SDS011;48929;47.910;20.390;2022-11-06T10:15:46;4.60;;;2.90;;
62844;SDS011;48929;47.910;20.390;2022-11-06T10:18:21;5.25;;;3.00;;
62844;SDS011;48929;47.910;20.390;2022-11-06T10:20:52;5.45;;;3.00;;
62844;SDS011;48929;47.910;20.390;2022-11-06T10:23:22;5.40;;;3.38;;
62844;SDS011;48929;47.910;20.390;2022-11-06T10:25:58;7.00;;;2.97;;
62844;SDS011;48929;47.910;20.390;2022-11-06T10:31:29;7.53;;;3.70;;
62844;SDS011;48929;47.910;20.390;2022-11-06T10:34:01;3.97;;;2.60;;
62844;SDS011;48929;47.910;20.390;2022-11-06T10:36:34;4.50;;;2.90;;
62844;SDS011;48929;47.910;20.390;2022-11-06T10:39:03;4.35;;;2.92;;
62844;SDS011;48929;47.910;20.390;2022-11-06T10:41:32;6.00;;;2.97;;
62844;SDS011;48929;47.910;20.390;2022-11-06T10:44:04;5.55;;;2.88;;
62844;SDS011;48929;47.910;20.390;2022-11-06T10:46:36;4.88;;;2.83;;
62844;SDS011;48929;47.910;20.390;2022-11-06T10:49:10;6.90;;;2.75;;
62844;SDS011;48929;47.910;20.390;2022-11-06T10:51:47;3.50;;;2.30;;
62844;SDS011;48929;47.910;20.390;2022-11-06T10:54:21;4.20;;;2.60;;
62844;SDS011;48929;47.910;20.390;2022-11-06T10:56:55;4.75;;;2.83;;
62844;SDS011;48929;47.910;20.390;2022-11-06T10:59:27;4.90;;;2.50;;
62844;SDS011;48929;47.910;20.390;2022-11-06T11:01:57;3.03;;;2.30;;
62844;SDS011;48929;47.910;20.390;2022-11-06T11:04:25;3.75;;;2.63;;
62844;SDS011;48929;47.910;20.390;2022-11-06T11:06:54;4.57;;;2.80;;
62844;SDS011;48929;47.910;20.390;2022-11-06T11:09:26;4.75;;;2.53;;
62844;SDS011;48929;47.910;20.390;2022-11-06T11:11:55;4.28;;;2.72;;
62844;SDS011;48929;47.910;20.390;2022-11-06T11:14:23;5.95;;;2.80;;
62844;SDS011;48929;47.910;20.390;2022-11-06T11:16:53;4.03;;;2.60;;
62844;SDS011;48929;47.910;20.390;2022-11-06T11:19:32;4.97;;;2.90;;
62844;SDS011;48929;47.910;20.390;2022-11-06T11:22:02;4.07;;;2.65;;
62844;SDS011;48929;47.910;20.390;2022-11-06T11:24:30;4.07;;;2.63;;
62844;SDS011;48929;47.910;20.390;2022-11-06T11:27:02;4.38;;;2.67;;
62844;SDS011;48929;47.910;20.390;2022-11-06T11:29:33;3.80;;;2.83;;
62844;SDS011;48929;47.910;20.390;2022-11-06T11:32:03;3.80;;;2.65;;
62844;SDS011;48929;47.910;20.390;2022-11-06T11:34:34;5.25;;;2.78;;
62844;SDS011;48929;47.910;20.390;2022-11-06T11:37:21;4.22;;;2.70;;
62844;SDS011;48929;47.910;20.390;2022-11-06T11:39:50;4.00;;;2.60;;
62844;SDS011;48929;47.910;20.390;2022-11-06T11:42:23;4.60;;;2.80;;
62844;SDS011;48929;47.910;20.390;2022-11-06T11:45:05;4.43;;;2.95;;
62844;SDS011;48929;47.910;20.390;2022-11-06T11:47:37;5.45;;;2.80;;
62844;SDS011;48929;47.910;20.390;2022-11-06T11:50:17;4.00;;;2.67;;
62844;SDS011;48929;47.910;20.390;2022-11-06T11:52:46;4.70;;;2.78;;
62844;SDS011;48929;47.910;20.390;2022-11-06T11:55:16;4.35;;;2.85;;
62844;SDS011;48929;47.910;20.390;2022-11-06T11:57:45;4.78;;;2.75;;
62844;SDS011;48929;47.910;20.390;2022-11-06T12:00:16;5.07;;;2.90;;
62844;SDS011;48929;47.910;20.390;2022-11-06T12:02:46;6.28;;;2.92;;
62844;SDS011;48929;47.910;20.390;2022-11-06T12:05:17;5.20;;;2.88;;
62844;SDS011;48929;47.910;20.390;2022-11-06T12:07:50;4.60;;;2.83;;
62844;SDS011;48929;47.910;20.390;2022-11-06T12:10:21;4.60;;;2.90;;
62844;SDS011;48929;47.910;20.390;2022-11-06T12:12:54;4.65;;;2.83;;
62844;SDS011;48929;47.910;20.390;2022-11-06T12:15:25;4.22;;;2.72;;
62844;SDS011;48929;47.910;20.390;2022-11-06T12:17:55;4.15;;;2.80;;
62844;SDS011;48929;47.910;20.390;2022-11-06T12:20:29;3.97;;;2.60;;
62844;SDS011;48929;47.910;20.390;2022-11-06T12:23:01;4.70;;;2.55;;
62844;SDS011;48929;47.910;20.390;2022-11-06T12:25:32;3.42;;;2.20;;
62844;SDS011;48929;47.910;20.390;2022-11-06T12:28:03;3.83;;;2.70;;
62844;SDS011;48929;47.910;20.390;2022-11-06T12:30:44;6.15;;;2.72;;
62844;SDS011;48929;47.910;20.390;2022-11-06T12:33:22;4.70;;;2.47;;
62844;SDS011;48929;47.910;20.390;2022-11-06T12:36:13;4.43;;;2.63;;
62844;SDS011;48929;47.910;20.390;2022-11-06T12:38:45;4.20;;;2.40;;
62844;SDS011;48929;47.910;20.390;2022-11-06T12:41:19;3.72;;;2.47;;
62844;SDS011;48929;47.910;20.390;2022-11-06T12:43:49;4.50;;;2.78;;
62844;SDS011;48929;47.910;20.390;2022-11-06T12:46:20;3.80;;;2.40;;
62844;SDS011;48929;47.910;20.390;2022-11-06T12:51:42;3.60;;;2.30;;
62844;SDS011;48929;47.910;20.390;2022-11-06T12:56:45;3.50;;;2.30;;
62844;SDS011;48929;47.910;20.390;2022-11-06T12:59:21;4.45;;;2.20;;
62844;SDS011;48929;47.910;20.390;2022-11-06T13:01:56;3.43;;;2.23;;
62844;SDS011;48929;47.910;20.390;2022-11-06T13:04:28;3.65;;;2.50;;
62844;SDS011;48929;47.910;20.390;2022-11-06T13:07:13;3.90;;;2.53;;
62844;SDS011;48929;47.910;20.390;2022-11-06T13:09:46;5.32;;;2.50;;
62844;SDS011;48929;47.910;20.390;2022-11-06T13:12:21;4.10;;;2.60;;
62844;SDS011;48929;47.910;20.390;2022-11-06T13:14:59;3.58;;;2.50;;
62844;SDS011;48929;47.910;20.390;2022-11-06T13:17:31;5.55;;;2.55;;
62844;SDS011;48929;47.910;20.390;2022-11-06T13:20:05;4.20;;;2.50;;
62844;SDS011;48929;47.910;20.390;2022-11-06T13:22:39;3.28;;;2.28;;
62844;SDS011;48929;47.910;20.390;2022-11-06T13:25:11;3.47;;;2.25;;
62844;SDS011;48929;47.910;20.390;2022-11-06T13:27:44;4.07;;;2.47;;
62844;SDS011;48929;47.910;20.390;2022-11-06T13:30:15;3.55;;;2.38;;
62844;SDS011;48929;47.910;20.390;2022-11-06T13:32:45;4.28;;;2.45;;
62844;SDS011;48929;47.910;20.390;2022-11-06T13:35:20;5.22;;;2.50;;
62844;SDS011;48929;47.910;20.390;2022-11-06T13:37:52;4.30;;;2.45;;
62844;SDS011;48929;47.910;20.390;2022-11-06T13:40:25;4.82;;;2.50;;
62844;SDS011;48929;47.910;20.390;2022-11-06T13:42:58;4.50;;;2.30;;
62844;SDS011;48929;47.910;20.390;2022-11-06T13:45:29;4.50;;;2.30;;
62844;SDS011;48929;47.910;20.390;2022-11-06T13:48:06;4.25;;;2.35;;
62844;SDS011;48929;47.910;20.390;2022-11-06T13:50:38;3.72;;;2.38;;
62844;SDS011;48929;47.910;20.390;2022-11-06T13:53:16;4.28;;;2.33;;
62844;SDS011;48929;47.910;20.390;2022-11-06T13:55:50;6.57;;;2.40;;
62844;SDS011;48929;47.910;20.390;2022-11-06T13:58:34;3.38;;;2.38;;
62844;SDS011;48929;47.910;20.390;2022-11-06T14:01:13;3.90;;;2.50;;
62844;SDS011;48929;47.910;20.390;2022-11-06T14:06:28;4.10;;;2.55;;
62844;SDS011;48929;47.910;20.390;2022-11-06T14:09:01;3.90;;;2.60;;
62844;SDS011;48929;47.910;20.390;2022-11-06T14:11:36;3.90;;;2.40;;
62844;SDS011;48929;47.910;20.390;2022-11-06T14:14:10;4.53;;;2.50;;
62844;SDS011;48929;47.910;20.390;2022-11-06T14:16:41;4.00;;;2.65;;
62844;SDS011;48929;47.910;20.390;2022-11-06T14:19:11;3.97;;;2.40;;
62844;SDS011;48929;47.910;20.390;2022-11-06T14:21:47;5.05;;;2.53;;
62844;SDS011;48929;47.910;20.390;2022-11-06T14:27:01;7.22;;;3.20;;
62844;SDS011;48929;47.910;20.390;2022-11-06T14:38:30;5.03;;;2.80;;
62844;SDS011;48929;47.910;20.390;2022-11-06T14:40:59;4.55;;;2.70;;
62844;SDS011;48929;47.910;20.390;2022-11-06T14:43:31;3.75;;;2.63;;
62844;SDS011;48929;47.910;20.390;2022-11-06T14:46:00;4.13;;;2.67;;
62844;SDS011;48929;47.910;20.390;2022-11-06T14:48:31;4.30;;;2.80;;
62844;SDS011;48929;47.910;20.390;2022-11-06T14:51:01;4.80;;;2.95;;
62844;SDS011;48929;47.910;20.390;2022-11-06T14:53:32;7.38;;;4.45;;
62844;SDS011;48929;47.910;20.390;2022-11-06T14:56:03;12.85;;;6.43;;
62844;SDS011;48929;47.910;20.390;2022-11-06T14:58:34;8.00;;;3.90;;
62844;SDS011;48929;47.910;20.390;2022-11-06T15:01:11;5.50;;;3.70;;
62844;SDS011;48929;47.910;20.390;2022-11-06T15:03:44;5.45;;;3.30;;
62844;SDS011;48929;47.910;20.390;2022-11-06T15:06:33;4.47;;;3.10;;
62844;SDS011;48929;47.910;20.390;2022-11-06T15:09:03;7.03;;;3.85;;
62844;SDS011;48929;47.910;20.390;2022-11-06T15:17:20;11.40;;;6.20;;
62844;SDS011;48929;47.910;20.390;2022-11-06T15:20:04;11.10;;;7.13;;
62844;SDS011;48929;47.910;20.390;2022-11-06T15:22:35;13.43;;;6.60;;
62844;SDS011;48929;47.910;20.390;2022-11-06T15:25:11;15.25;;;7.25;;
62844;SDS011;48929;47.910;20.390;2022-11-06T15:27:45;21.85;;;10.68;;